Time;durP1;ratioP1;P1;durP2;ratioP2;P2;SDS_P1;SDS_P2;PMS_P1;PMS_P2;Temp;Humidity;BMP_temperature;BMP_pressure;BME280_temperature;BME280_humidity;BME280_pressure;Samples;Min_cycle;Max_cycle;Signal;HPM_P1;HPM_P2
2022/01/24 00:01:42;;;;;;;;;69.33;52.33;;;;;3.01;73.03;102429.16;5006157;28;45341;-83
2022/01/24 00:04:08;;;;;;;;;63.33;51.00;;;;;3.15;73.03;102448.25;5024572;28;45331;-83
2022/01/24 00:07:06;;;;;;;;;59.67;49.00;;;;;3.97;73.38;102594.28;5007691;28;45416;-84
2022/01/24 00:09:35;;;;;;;;;67.33;52.33;;;;;3.49;73.16;102515.56;5037614;28;45245;-84
2022/01/24 00:12:16;;;;;;;;;63.67;50.67;;;;;3.53;73.21;102510.63;5031106;28;45507;-84
2022/01/24 00:28:39;;;;;;;;;55.33;43.33;;;;;3.61;73.63;102525.06;5022332;28;45407;-87
2022/01/24 00:31:16;;;;;;;;;55.67;44.67;;;;;3.13;73.87;102463.78;5039081;28;45390;-83
2022/01/24 00:33:49;;;;;;;;;60.00;45.00;;;;;3.49;73.34;102516.47;5051177;28;45579;-84
2022/01/24 00:36:25;;;;;;;;;53.00;44.00;;;;;2.70;73.63;102363.81;5055740;28;45523;-84
2022/01/24 00:41:26;;;;;;;;;53.67;44.67;;;;;3.72;73.67;102559.63;5000961;26;44842;-85
2022/01/24 00:46:38;;;;;;;;;59.67;47.33;;;;;3.51;73.99;102524.38;5034590;28;45408;-86
2022/01/24 00:49:22;;;;;;;;;64.00;46.67;;;;;3.74;73.59;102552.84;5031540;28;45379;-87
2022/01/24 00:54:54;;;;;;;;;51.00;42.67;;;;;3.13;74.07;102457.69;5037321;22;45197;-88
2022/01/24 00:57:21;;;;;;;;;60.00;47.00;;;;;3.47;73.99;102515.47;5012022;28;46782;-86
2022/01/24 00:59:48;;;;;;;;;64.67;48.33;;;;;3.37;74.08;102503.56;5029890;28;45237;-86
2022/01/24 01:02:23;;;;;;;;;59.00;44.00;;;;;3.18;74.04;102460.59;5010010;28;45308;-87
2022/01/24 01:05:10;;;;;;;;;47.67;43.67;;;;;2.73;74.05;102386.53;5008518;28;45480;-85
2022/01/24 01:18:53;;;;;;;;;49.00;43.67;;;;;2.63;73.84;102371.13;5038643;28;45038;-87
2022/01/24 01:21:19;;;;;;;;;40.33;38.33;;;;;3.08;74.28;102444.38;5040548;28;44753;-85
2022/01/24 01:23:53;;;;;;;;;53.00;44.33;;;;;3.68;74.28;102542.91;5037654;28;45962;-87
2022/01/24 01:26:45;;;;;;;;;49.33;43.67;;;;;3.56;74.09;102529.09;5018776;28;44828;-90
2022/01/24 01:29:21;;;;;;;;;55.67;43.00;;;;;3.35;74.35;102486.00;5009843;28;46491;-86
2022/01/24 01:54:15;;;;;;;;;51.67;43.00;;;;;2.98;74.30;102441.06;5021545;28;44644;-89
2022/01/24 01:56:36;;;;;;;;;46.33;40.33;;;;;3.06;74.93;102456.38;5034550;28;45405;-88
2022/01/24 01:59:05;;;;;;;;;50.00;42.67;;;;;3.54;74.48;102546.34;5019808;28;45622;-90
2022/01/24 02:01:48;;;;;;;;;49.33;40.67;;;;;3.54;74.57;102537.63;5015562;28;46776;-89
2022/01/24 02:04:16;;;;;;;;;48.33;40.00;;;;;3.38;74.61;102510.56;5023026;28;45200;-87
2022/01/24 02:06:43;;;;;;;;;42.33;40.00;;;;;3.01;74.81;102456.91;5010482;28;45349;-91
2022/01/24 02:09:11;;;;;;;;;44.33;35.00;;;;;2.64;74.84;102394.63;5015411;28;45344;-86
2022/01/24 02:11:40;;;;;;;;;46.00;39.00;;;;;3.17;74.14;102487.44;5013331;28;46465;-89
2022/01/24 02:14:14;;;;;;;;;45.33;39.67;;;;;3.49;74.48;102549.44;4997720;28;45518;-90
2022/01/24 02:25:05;;;;;;;;;46.33;43.33;;;;;3.23;74.23;102488.72;4936719;28;45461;-85
2022/01/24 02:27:44;;;;;;;;;49.33;39.67;;;;;2.89;74.06;102451.81;4937795;28;45368;-87
2022/01/24 02:30:36;;;;;;;;;42.33;37.33;;;;;2.55;74.35;102392.31;4938989;28;45242;-89
2022/01/24 02:33:01;;;;;;;;;57.67;44.00;;;;;3.35;74.90;102517.25;4948753;28;45438;-88
2022/01/24 02:35:35;;;;;;;;;50.00;43.00;;;;;2.97;74.55;102442.75;4955477;28;45320;-88
2022/01/24 02:38:18;;;;;;;;;41.00;39.00;;;;;2.56;74.85;102372.41;4955589;28;45435;-86
2022/01/24 02:45:59;;;;;;;;;40.67;36.67;;;;;2.05;74.48;102297.97;4955385;28;44692;-86
2022/01/24 02:49:01;;;;;;;;;46.00;42.00;;;;;2.88;75.12;102430.84;4864887;29;45475;-90
2022/01/24 02:51:45;;;;;;;;;47.00;40.00;;;;;2.66;74.82;102390.41;4877069;29;44826;-92
2022/01/24 02:54:29;;;;;;;;;44.67;38.67;;;;;3.36;74.84;102516.50;4872905;29;46203;-88
2022/01/24 02:56:55;;;;;;;;;47.00;37.67;;;;;2.63;74.42;102386.72;4875897;29;45282;-84
2022/01/24 02:59:21;;;;;;;;;49.33;42.00;;;;;3.21;74.56;102479.03;4922444;28;45478;-84
2022/01/24 03:01:52;;;;;;;;;43.00;39.00;;;;;3.13;74.39;102468.09;4944964;28;45531;-85
2022/01/24 03:04:19;;;;;;;;;49.67;40.00;;;;;3.14;74.54;102470.81;4943572;28;47836;-87
2022/01/24 03:06:45;;;;;;;;;43.00;40.33;;;;;3.18;74.75;102479.72;4944158;28;45334;-85
2022/01/24 03:09:11;;;;;;;;;51.00;43.67;;;;;3.13;75.07;102457.69;4929280;28;45584;-83
2022/01/24 03:14:41;;;;;;;;;41.67;39.00;;;;;2.45;74.63;102357.81;4897041;29;46290;-87
2022/01/24 03:17:12;;;;;;;;;47.67;36.67;;;;;2.94;74.87;102449.47;4895782;29;45313;-88
2022/01/24 03:19:41;;;;;;;;;38.33;35.00;;;;;3.28;74.56;102509.88;4912666;29;45291;-85
2022/01/24 03:22:23;;;;;;;;;41.67;35.33;;;;;3.25;74.95;102494.94;4909836;29;45614;-84
2022/01/24 03:24:51;;;;;;;;;55.33;40.00;;;;;2.47;74.54;102356.19;4908231;29;48114;-89
2022/01/24 03:27:23;;;;;;;;;55.00;43.00;;;;;3.24;74.65;102489.63;4943373;28;45442;-85
2022/01/24 03:29:49;;;;;;;;;48.67;41.00;;;;;2.18;74.65;102310.97;4953352;28;45340;-87
2022/01/24 03:32:17;;;;;;;;;36.00;32.33;;;;;3.01;75.00;102465.59;4967177;28;45773;-83
2022/01/24 03:34:45;;;;;;;;;46.00;42.00;;;;;3.21;74.59;102502.47;4966181;28;46440;-88
2022/01/24 03:37:12;;;;;;;;;39.67;38.33;;;;;3.08;75.02;102469.53;4965975;28;45412;-88
2022/01/24 03:39:43;;;;;;;;;48.00;41.00;;;;;2.48;74.87;102363.19;4948912;28;45282;-85
2022/01/24 03:42:10;;;;;;;;;45.33;36.00;;;;;3.17;74.43;102490.06;4966464;28;45339;-88
2022/01/24 03:44:44;;;;;;;;;46.67;36.67;;;;;2.48;75.15;102371.00;4946985;28;46567;-87
2022/01/24 03:47:30;;;;;;;;;52.33;43.00;;;;;2.68;74.98;102413.94;4945771;28;45468;-87
2022/01/24 03:49:56;;;;;;;;;41.33;32.67;;;;;3.12;74.76;102487.13;4947014;28;45297;-84
2022/01/24 03:52:22;;;;;;;;;42.33;41.00;;;;;1.96;74.57;102297.34;5003626;28;45875;-89
2022/01/24 03:54:51;;;;;;;;;40.33;38.00;;;;;3.10;75.29;102483.53;5000565;28;46481;-88
2022/01/24 03:57:19;;;;;;;;;56.67;43.33;;;;;2.37;75.45;102366.78;5021361;28;45346;-91
2022/01/24 03:59:47;;;;;;;;;52.33;42.00;;;;;2.45;75.70;102370.81;5015840;28;44794;-88
2022/01/24 04:02:14;;;;;;;;;49.67;41.00;;;;;2.58;75.04;102407.22;5034347;28;45205;-88
2022/01/24 04:04:44;;;;;;;;;40.67;37.67;;;;;2.12;75.53;102322.66;5034203;28;46638;-92
2022/01/24 04:07:10;;;;;;;;;50.67;38.67;;;;;3.02;74.70;102472.63;5014749;28;45284;-90
2022/01/24 04:09:39;;;;;;;;;49.33;38.00;;;;;2.90;75.63;102445.78;5034735;28;44785;-87
2022/01/24 04:12:07;;;;;;;;;47.00;40.33;;;;;2.83;75.27;102448.78;5018532;28;45316;-86
2022/01/24 04:15:07;;;;;;;;;44.33;36.00;;;;;3.01;75.46;102476.03;5034741;28;45336;-85
2022/01/24 04:17:46;;;;;;;;;48.00;41.00;;;;;2.22;75.43;102330.25;5034919;28;45274;-89
2022/01/24 04:23:00;;;;;;;;;42.33;39.67;;;;;2.82;75.14;102453.09;5033990;28;45242;-89
2022/01/24 04:25:32;;;;;;;;;41.33;41.00;;;;;2.09;75.32;102318.16;5034382;28;45529;-88
2022/01/24 04:28:02;;;;;;;;;45.67;40.67;;;;;1.94;75.44;102298.91;5033417;28;45257;-89
2022/01/24 04:30:27;;;;;;;;;42.33;40.00;;;;;2.57;75.50;102400.22;5032490;28;45305;-89
2022/01/24 04:33:01;;;;;;;;;40.33;40.00;;;;;2.35;75.99;102373.59;5034581;28;45309;-90
2022/01/24 04:35:29;;;;;;;;;46.67;42.00;;;;;2.19;75.29;102333.56;5054683;28;46469;-84
2022/01/24 04:38:03;;;;;;;;;51.33;38.67;;;;;2.91;75.86;102458.00;5038243;28;44680;-87
2022/01/24 04:40:50;;;;;;;;;30.00;26.00;;;;;2.18;75.03;102333.47;5055733;28;45207;-90
2022/01/24 04:43:35;;;;;;;;;51.00;40.67;;;;;2.42;75.47;102393.97;5032268;28;45600;-88
2022/01/24 04:46:09;;;;;;;;;43.67;33.33;;;;;1.61;75.45;102256.00;5037888;22;46233;-92
2022/01/24 04:51:56;;;;;;;;;28.33;26.33;;;;;2.67;75.95;102440.75;5013667;28;45332;-87
2022/01/24 04:54:42;;;;;;;;;43.00;40.33;;;;;1.99;75.57;102308.84;5000413;28;45229;-88
2022/01/24 04:57:23;;;;;;;;;35.33;31.33;;;;;2.13;76.04;102361.75;5001813;28;45443;-89
2022/01/24 04:59:51;;;;;;;;;40.67;37.33;;;;;1.97;75.25;102317.34;4992338;28;45308;-87
2022/01/24 05:02:21;;;;;;;;;49.00;40.67;;;;;2.62;75.94;102434.34;4972851;28;45413;-86
2022/01/24 05:04:50;;;;;;;;;55.33;43.67;;;;;2.44;75.37;102414.13;4993957;28;45266;-85
2022/01/24 05:07:16;;;;;;;;;45.67;37.33;;;;;2.60;76.01;102429.03;5036546;28;45431;-86
2022/01/24 05:09:52;;;;;;;;;40.67;38.67;;;;;2.81;76.05;102481.63;5003790;28;45266;-86
2022/01/24 05:23:30;;;;;;;;;58.67;43.67;;;;;1.91;76.10;102330.81;5033531;28;45218;-85
2022/01/24 05:25:59;;;;;;;;;45.33;38.67;;;;;2.31;75.39;102410.56;5034949;28;45297;-85
2022/01/24 05:28:25;;;;;;;;;44.33;38.00;;;;;2.77;75.62;102477.88;5016781;28;45492;-86
2022/01/24 05:30:51;;;;;;;;;52.33;43.00;;;;;2.39;75.59;102412.00;5032621;28;45957;-87
2022/01/24 05:33:18;;;;;;;;;50.00;41.00;;;;;1.75;75.45;102299.38;5032093;28;45301;-89
2022/01/24 05:35:47;;;;;;;;;46.00;41.00;;;;;2.63;75.60;102451.78;5014913;28;45254;-84
2022/01/24 05:38:12;;;;;;;;;44.33;38.33;;;;;2.15;75.87;102372.28;5030175;28;46719;-86
2022/01/24 05:40:40;;;;;;;;;52.00;42.67;;;;;2.28;75.91;102406.97;5032725;28;45372;-85
2022/01/24 05:43:09;;;;;;;;;40.33;36.00;;;;;2.59;75.59;102448.03;5017495;28;45403;-88
2022/01/24 05:45:38;;;;;;;;;49.67;42.00;;;;;1.50;75.65;102259.56;5018116;28;45497;-84
2022/01/24 05:48:10;;;;;;;;;51.67;38.67;;;;;2.39;76.02;102418.09;5034819;28;46564;-86
2022/01/24 05:50:37;;;;;;;;;48.00;36.00;;;;;2.33;75.88;102406.38;5014071;28;45378;-88
2022/01/24 05:53:03;;;;;;;;;51.00;43.67;;;;;1.79;75.93;102316.09;5033210;28;45448;-86
2022/01/24 05:55:31;;;;;;;;;45.67;41.00;;;;;2.22;75.96;102403.94;5018142;28;45311;-87
2022/01/24 05:57:59;;;;;;;;;45.00;40.33;;;;;2.19;75.65;102397.66;5040477;28;45240;-86
2022/01/24 06:00:30;;;;;;;;;37.33;33.33;;;;;1.66;75.93;102310.03;5024215;28;45260;-84
2022/01/24 06:02:57;;;;;;;;;49.00;42.33;;;;;2.57;76.05;102467.84;5006954;28;44819;-86
2022/01/24 06:05:23;;;;;;;;;47.00;35.67;;;;;2.16;76.51;102393.16;5003935;28;44903;-89
2022/01/24 06:07:54;;;;;;;;;50.33;42.33;;;;;2.56;75.96;102472.16;5002949;28;46737;-87
2022/01/24 06:10:21;;;;;;;;;41.33;34.67;;;;;2.46;75.51;102450.63;5016091;28;45243;-86
2022/01/24 06:12:47;;;;;;;;;52.00;43.00;;;;;1.52;76.05;102307.31;5001807;28;44691;-87
2022/01/24 06:15:13;;;;;;;;;52.00;38.33;;;;;2.07;76.18;102381.25;5015803;28;45579;-87
2022/01/24 06:17:44;;;;;;;;;47.67;41.00;;;;;2.14;76.19;102409.44;4998817;28;46785;-87
2022/01/24 06:20:13;;;;;;;;;49.33;42.67;;;;;2.53;75.90;102486.66;4996835;28;44710;-88
2022/01/24 06:22:45;;;;;;;;;43.33;40.33;;;;;2.51;76.05;102465.75;5009590;28;45236;-85
2022/01/24 06:25:12;;;;;;;;;47.67;41.00;;;;;2.22;75.92;102419.56;4990433;28;45295;-84
2022/01/24 06:27:42;;;;;;;;;54.33;42.00;;;;;2.50;76.51;102470.84;5003930;28;48272;-88
2022/01/24 06:30:08;;;;;;;;;52.00;41.67;;;;;2.50;76.41;102468.22;4989570;28;45531;-87
2022/01/24 06:32:34;;;;;;;;;48.67;42.67;;;;;2.04;76.25;102397.50;4998476;28;45484;-85
2022/01/24 06:34:59;;;;;;;;;46.00;41.33;;;;;2.50;75.64;102491.66;5004822;28;45451;-84
2022/01/24 06:37:25;;;;;;;;;49.33;40.33;;;;;1.88;76.04;102381.69;5000034;28;47469;-83
2022/01/24 06:39:51;;;;;;;;;58.33;45.00;;;;;2.47;76.23;102486.25;5012922;28;45249;-87
2022/01/24 06:42:22;;;;;;;;;46.33;34.67;;;;;1.61;76.03;102339.13;5011883;28;45317;-87
2022/01/24 06:44:57;;;;;;;;;62.33;47.00;;;;;1.81;76.33;102364.75;5005679;28;45336;-87
2022/01/24 06:47:26;;;;;;;;;53.67;44.33;;;;;2.44;76.77;102486.94;4999296;28;46870;-87
2022/01/24 06:49:52;;;;;;;;;54.00;45.00;;;;;1.24;76.11;102276.84;4984139;28;45645;-87
2022/01/24 06:52:18;;;;;;;;;46.67;38.33;;;;;2.21;76.15;102446.34;5000169;28;45423;-84
2022/01/24 06:54:44;;;;;;;;;48.67;43.33;;;;;2.02;76.32;102411.19;4990902;28;45536;-87
2022/01/24 06:57:13;;;;;;;;;43.67;41.00;;;;;1.70;76.19;102348.44;5012065;28;45262;-85
2022/01/24 06:59:51;;;;;;;;;41.33;41.00;;;;;1.19;76.04;102266.94;4993170;28;45832;-85
2022/01/24 07:02:17;;;;;;;;;45.67;44.33;;;;;2.10;76.32;102434.31;4986152;28;45358;-82
2022/01/24 07:04:44;;;;;;;;;45.33;42.67;;;;;2.43;76.00;102497.25;5010701;28;45157;-87
2022/01/24 07:07:11;;;;;;;;;56.33;44.33;;;;;1.79;76.53;102386.25;4994713;28;47406;-86
2022/01/24 07:09:37;;;;;;;;;59.33;45.33;;;;;1.83;76.04;102385.66;5003961;28;45344;-85
2022/01/24 07:12:04;;;;;;;;;54.00;45.00;;;;;2.09;76.50;102432.53;5007787;28;44780;-84
2022/01/24 07:14:29;;;;;;;;;44.33;40.00;;;;;2.20;76.27;102462.75;5004464;28;45310;-84
2022/01/24 07:19:29;;;;;;;;;49.67;44.33;;;;;2.26;76.58;102460.59;5001830;28;45437;-79
2022/01/24 07:21:56;;;;;;;;;55.00;47.67;;;;;2.25;76.00;102460.47;5002164;28;45324;-84
2022/01/24 07:24:23;;;;;;;;;48.67;44.67;;;;;2.18;76.47;102447.84;5015337;28;44942;-80
2022/01/24 07:26:48;;;;;;;;;54.33;47.33;;;;;2.06;76.24;102428.81;5017741;28;45260;-82
2022/01/24 07:29:14;;;;;;;;;53.33;43.00;;;;;2.14;76.17;102446.75;5014802;28;45364;-81
2022/01/24 07:31:39;;;;;;;;;55.00;41.67;;;;;2.38;75.94;102489.13;5009627;28;44788;-79
2022/01/24 07:34:04;;;;;;;;;48.67;40.33;;;;;2.17;76.68;102444.34;5022008;28;44829;-80
2022/01/24 07:36:30;;;;;;;;;55.33;44.67;;;;;2.13;76.61;102428.44;5017765;28;46459;-81
2022/01/24 07:38:55;;;;;;;;;52.67;45.33;;;;;2.27;76.38;102451.09;4997422;28;45446;-79
2022/01/24 07:41:27;;;;;;;;;54.67;48.67;;;;;2.33;76.14;102458.38;4994188;28;45754;-80
2022/01/24 07:43:53;;;;;;;;;51.67;44.67;;;;;2.19;76.23;102429.75;4998279;28;45402;-80
2022/01/24 07:46:18;;;;;;;;;55.00;45.67;;;;;2.45;76.56;102474.84;4998459;28;46370;-78
2022/01/24 07:48:44;;;;;;;;;60.33;44.00;;;;;2.54;76.31;102496.28;5000189;28;45215;-81
2022/01/24 07:51:10;;;;;;;;;56.00;42.67;;;;;2.30;75.60;102435.69;5000619;28;45640;-78
2022/01/24 07:53:35;;;;;;;;;54.00;45.00;;;;;2.58;76.14;102493.06;5000891;28;45467;-79
2022/01/24 07:56:03;;;;;;;;;62.33;45.67;;;;;2.51;76.52;102476.16;5001349;28;45458;-82
2022/01/24 07:58:29;;;;;;;;;63.67;47.33;;;;;2.53;75.80;102471.97;5003020;28;45536;-80
2022/01/24 08:00:55;;;;;;;;;60.67;46.00;;;;;2.53;75.59;102471.06;5002000;28;45679;-78
2022/01/24 08:03:20;;;;;;;;;66.33;49.33;;;;;2.71;75.42;102495.72;5000656;28;45285;-81
2022/01/24 08:05:46;;;;;;;;;52.00;45.33;;;;;2.35;75.33;102434.31;5002404;28;46389;-77
2022/01/24 08:08:11;;;;;;;;;52.33;44.00;;;;;2.78;75.55;102504.81;4995496;28;45542;-78
2022/01/24 08:10:37;;;;;;;;;46.67;41.33;;;;;2.63;74.78;102464.78;5003008;28;45391;-80
2022/01/24 08:13:02;;;;;;;;;49.00;41.00;;;;;2.78;74.58;102490.09;5002340;28;45424;-75
2022/01/24 08:15:28;;;;;;;;;56.00;46.33;;;;;2.73;75.19;102480.19;4997942;28;46095;-78
2022/01/24 08:17:53;;;;;;;;;62.00;48.00;;;;;2.72;74.67;102471.50;4999010;28;45241;-79
2022/01/24 08:20:20;;;;;;;;;54.33;43.67;;;;;2.97;75.02;102515.66;5004840;28;45590;-83
2022/01/24 08:22:46;;;;;;;;;46.33;38.33;;;;;3.03;74.38;102517.78;5002448;28;45396;-80
2022/01/24 08:25:12;;;;;;;;;57.67;48.00;;;;;2.97;73.99;102496.53;5003750;28;45456;-77
2022/01/24 08:27:38;;;;;;;;;69.00;52.67;;;;;3.10;74.43;102507.88;4980247;28;45703;-79
2022/01/24 08:30:10;;;;;;;;;58.33;48.67;;;;;3.15;74.08;102510.75;4999228;28;45557;-78
2022/01/24 08:32:35;;;;;;;;;52.33;43.33;;;;;3.19;74.04;102509.28;4983812;28;45477;-81
2022/01/24 08:35:00;;;;;;;;;55.67;48.00;;;;;2.88;73.64;102447.38;5003500;28;45477;-81
2022/01/24 08:37:27;;;;;;;;;62.67;53.00;;;;;3.20;73.64;102501.56;4999637;28;45446;-79
2022/01/24 08:39:52;;;;;;;;;59.67;48.33;;;;;3.04;72.87;102470.09;4996741;28;45502;-79
2022/01/24 08:42:32;;;;;;;;;51.67;45.00;;;;;3.29;73.25;102503.88;4999233;28;45479;-83
2022/01/24 08:47:27;;;;;;;;;50.33;45.33;;;;;3.03;72.46;102447.47;4996196;28;44783;-80
2022/01/24 08:49:53;;;;;;;;;52.33;45.00;;;;;2.76;72.42;102404.94;4998120;28;45826;-92
2022/01/24 08:52:19;;;;;;;;;57.00;44.67;;;;;3.15;72.90;102462.19;4999236;28;45621;-80
2022/01/24 08:54:45;;;;;;;;;55.33;46.33;;;;;3.44;72.74;102497.03;4998473;28;45717;-80
2022/01/24 08:57:13;;;;;;;;;63.00;45.67;;;;;3.61;72.58;102526.78;4999265;28;45455;-79
2022/01/24 08:59:38;;;;;;;;;62.67;49.33;;;;;3.64;72.21;102517.47;4995273;28;45464;-80
2022/01/24 09:02:04;;;;;;;;;63.00;47.67;;;;;3.47;71.75;102475.50;5002008;28;45338;-77
2022/01/24 09:04:30;;;;;;;;;65.00;52.33;;;;;3.06;72.03;102398.19;5000184;28;46086;-82
2022/01/24 09:07:00;;;;;;;;;75.33;58.33;;;;;3.70;71.65;102503.91;4997888;28;45519;-79
2022/01/24 09:09:25;;;;;;;;;66.33;52.67;;;;;3.61;72.05;102492.91;4995993;28;46377;-78
2022/01/24 09:11:52;;;;;;;;;64.33;51.33;;;;;3.87;71.69;102531.94;4998285;28;45392;-78
2022/01/24 09:14:17;;;;;;;;;69.33;53.00;;;;;3.86;71.03;102521.41;4997382;28;46291;-79
2022/01/24 09:16:43;;;;;;;;;68.67;53.67;;;;;3.81;71.38;102497.66;4995154;28;45257;-75
2022/01/24 09:19:08;;;;;;;;;66.67;52.67;;;;;3.99;70.81;102523.97;4998684;28;45421;-79
2022/01/24 12:02:06;;;;;;;;;35.75;32.25;;;;;15.21;36.66;102341.22;4953371;28;1393209;-90
2022/01/24 12:05:07;;;;;;;;;31.25;27.50;;;;;15.33;37.35;102431.66;5075176;22;45981;-90
2022/01/24 12:08:06;;;;;;;;;34.25;30.00;;;;;14.31;37.31;102300.00;4936837;28;47366;-85
2022/01/24 12:10:35;;;;;;;;;36.00;31.25;;;;;15.05;37.64;102435.66;4925811;28;45333;-82
2022/01/24 12:13:20;;;;;;;;;28.50;27.25;;;;;14.90;37.25;102439.84;4942517;28;45535;-86
2022/01/24 12:15:48;;;;;;;;;38.25;31.75;;;;;14.75;38.14;102444.00;4946374;28;45424;-89
2022/01/24 12:18:42;;;;;;;;;39.50;34.75;;;;;14.69;38.39;102432.38;4930389;28;46227;-89
2022/01/24 12:21:09;;;;;;;;;38.00;33.00;;;;;14.68;38.72;102433.25;4940106;28;45389;-87
2022/01/24 12:23:48;;;;;;;;;43.75;33.75;;;;;14.71;38.44;102434.22;4940151;28;45398;-89
2022/01/24 12:26:13;;;;;;;;;38.50;33.75;;;;;14.59;39.13;102425.13;4938592;28;45376;-88
2022/01/24 12:28:41;;;;;;;;;36.25;33.75;;;;;14.51;39.04;102424.97;4939059;28;46106;-88
2022/01/24 12:31:26;;;;;;;;;33.50;33.00;;;;;14.18;38.85;102393.41;4940922;28;45402;-87
2022/01/24 12:34:04;;;;;;;;;38.25;32.75;;;;;13.65;39.44;102379.97;4926114;28;44788;-87
2022/01/24 12:36:50;;;;;;;;;36.25;31.25;;;;;13.72;40.18;102424.28;4977868;28;45274;-87
2022/01/24 12:39:27;;;;;;;;;34.75;33.00;;;;;13.76;40.35;102433.19;4997936;28;45409;-88
2022/01/24 12:41:58;;;;;;;;;39.25;33.75;;;;;13.40;40.45;102416.53;4982963;28;45370;-91
2022/01/24 12:47:06;;;;;;;;;37.50;32.00;;;;;12.78;40.56;102333.00;5005053;28;45293;-88
2022/01/24 12:49:32;;;;;;;;;35.00;34.50;;;;;12.96;41.14;102390.75;4998269;28;46342;-89
2022/01/24 12:52:05;;;;;;;;;42.75;36.50;;;;;12.77;41.82;102362.97;4998311;28;45489;-86
2022/01/24 12:54:35;;;;;;;;;40.50;33.00;;;;;13.00;41.87;102412.00;4980165;28;45444;-86
2022/01/24 12:57:05;;;;;;;;;38.50;33.00;;;;;12.51;41.78;102363.19;4988559;28;45424;-88
2022/01/24 12:59:31;;;;;;;;;40.50;33.75;;;;;12.40;42.33;102345.28;4983900;28;47385;-89
2022/01/24 13:02:00;;;;;;;;;37.00;34.00;;;;;12.77;42.03;102431.72;4984222;28;45910;-87
2022/01/24 13:04:33;;;;;;;;;36.25;33.75;;;;;12.80;42.28;102416.81;4997142;28;45551;-87
2022/01/24 13:06:59;;;;;;;;;35.25;32.75;;;;;12.33;42.29;102340.69;4984783;28;45452;-89
2022/01/24 13:09:27;;;;;;;;;36.00;32.50;;;;;12.39;42.70;102357.59;4961793;28;46881;-90
2022/01/24 13:11:56;;;;;;;;;32.50;32.00;;;;;12.05;42.97;102297.69;4966152;28;45493;-87
2022/01/24 13:14:29;;;;;;;;;38.50;34.00;;;;;12.62;42.57;102396.94;4961617;28;45560;-87
2022/01/24 13:22:42;;;;;;;;;37.25;33.00;;;;;11.86;43.15;102306.00;4979503;28;45374;-90
2022/01/24 13:25:16;;;;;;;;;33.75;27.50;;;;;11.80;43.71;102301.41;4974664;28;45357;-85
2022/01/24 13:27:48;;;;;;;;;38.50;33.25;;;;;12.32;43.16;102395.28;5000863;28;45430;-89
2022/01/24 13:30:22;;;;;;;;;41.25;33.00;;;;;12.36;43.28;102402.44;4982376;28;47659;-90
2022/01/24 13:32:52;;;;;;;;;33.50;29.25;;;;;12.10;43.81;102371.78;4982271;28;45449;-91
2022/01/24 13:35:24;;;;;;;;;40.50;32.75;;;;;11.90;44.07;102348.34;4971275;28;45207;-90
2022/01/24 13:37:49;;;;;;;;;39.00;34.00;;;;;11.77;44.31;102351.47;4986744;28;45468;-90
2022/01/24 13:41:09;;;;;;;;;43.75;34.75;;;;;11.81;44.64;102376.25;4987120;28;45562;-91
2022/01/24 13:43:53;;;;;;;;;34.50;28.75;;;;;11.89;44.58;102401.13;4969751;28;45263;-90
2022/01/24 13:46:22;;;;;;;;;32.75;29.25;;;;;10.98;44.30;102257.72;4989138;28;45450;-90
2022/01/24 13:49:00;;;;;;;;;36.00;34.00;;;;;11.74;44.54;102398.94;4971551;28;45361;-90
2022/01/24 13:51:46;;;;;;;;;30.00;26.75;;;;;10.89;44.95;102254.81;4972927;28;47361;-91
2022/01/24 13:54:24;;;;;;;;;30.50;27.75;;;;;10.81;44.77;102265.09;4957409;28;45412;-90
2022/01/24 13:57:07;;;;;;;;;21.75;18.75;;;;;11.49;45.27;102401.69;4982092;28;44811;-90
2022/01/24 13:59:33;;;;;;;;;32.25;30.25;;;;;10.93;45.19;102309.41;4979770;28;45333;-89
2022/01/24 14:02:18;;;;;;;;;24.50;23.75;;;;;11.05;45.39;102348.44;4978061;28;46275;-90
2022/01/24 14:04:49;;;;;;;;;32.25;27.50;;;;;10.79;45.48;102330.03;4982211;28;45235;-89
2022/01/24 14:07:43;;;;;;;;;29.50;27.50;;;;;11.05;45.74;102403.81;4996259;28;45413;-86
2022/01/24 14:10:12;;;;;;;;;30.50;29.25;;;;;10.91;45.92;102408.66;4983255;28;45631;-89
2022/01/24 14:12:46;;;;;;;;;32.50;28.00;;;;;10.77;46.38;102402.91;5001047;28;46560;-86
2022/01/24 14:15:23;;;;;;;;;29.75;29.00;;;;;10.71;46.63;102396.56;4998846;28;45405;-82
2022/01/24 14:21:09;;;;;;;;;29.00;27.00;;;;;10.45;47.12;102366.69;4942426;28;45513;-83
2022/01/24 14:23:38;;;;;;;;;34.25;32.50;;;;;10.60;47.71;102409.34;4942012;28;46250;-86
2022/01/24 14:26:21;;;;;;;;;36.75;33.00;;;;;10.36;47.79;102383.09;4941854;28;45420;-87
2022/01/24 14:28:48;;;;;;;;;34.25;31.25;;;;;10.38;47.53;102398.94;4942904;28;45357;-86
2022/01/24 14:31:16;;;;;;;;;30.25;30.25;;;;;10.38;47.86;102413.00;4952988;28;45030;-84
2022/01/24 14:33:44;;;;;;;;;46.00;36.00;;;;;9.99;49.06;102365.06;4943197;28;45490;-88
2022/01/24 14:36:22;;;;;;;;;33.75;30.50;;;;;10.26;48.39;102417.84;4941978;28;45396;-86
2022/01/24 14:38:57;;;;;;;;;32.75;30.25;;;;;10.23;49.25;102421.25;4941991;28;45567;-89
2022/01/24 14:41:35;;;;;;;;;30.00;28.25;;;;;10.20;49.35;102410.56;4925146;28;45454;-86
2022/01/24 14:46:47;;;;;;;;;32.75;29.50;;;;;10.06;49.24;102408.31;4945630;28;45271;-91
2022/01/24 14:49:16;;;;;;;;;27.75;23.75;;;;;10.02;49.66;102409.03;4926665;28;45539;-90
2022/01/24 14:51:44;;;;;;;;;34.75;30.50;;;;;9.97;49.33;102408.88;4925289;28;45279;-90
2022/01/24 14:54:16;;;;;;;;;36.75;32.00;;;;;9.92;49.76;102410.41;4923867;28;47621;-83
2022/01/24 14:56:44;;;;;;;;;40.50;35.50;;;;;9.28;49.80;102303.66;4946259;28;45428;-84
2022/01/24 14:59:13;;;;;;;;;39.50;31.50;;;;;9.79;50.29;102409.09;4994471;28;45564;-91
2022/01/24 15:01:39;;;;;;;;;29.50;27.75;;;;;9.56;50.45;102400.31;4974113;28;45510;-89
2022/01/24 15:04:06;;;;;;;;;37.25;33.75;;;;;9.65;50.57;102420.81;4996402;28;46103;-88
2022/01/24 15:06:32;;;;;;;;;40.00;35.50;;;;;9.26;50.73;102354.44;5003005;28;45496;-85
2022/01/24 15:09:00;;;;;;;;;33.25;29.50;;;;;9.36;51.35;102382.88;4965795;28;45488;-83
2022/01/24 15:11:31;;;;;;;;;36.25;30.00;;;;;9.53;51.22;102418.63;4992644;28;45500;-92
2022/01/24 15:14:21;;;;;;;;;33.75;31.25;;;;;8.76;51.66;102304.31;4965791;28;46821;-84
2022/01/24 15:17:22;;;;;;;;;41.25;35.50;;;;;8.52;51.78;102272.69;4991716;28;45472;-89
2022/01/24 15:27:37;;;;;;;;;42.75;34.00;;;;;8.74;53.09;102386.50;4979835;28;45255;-86
2022/01/24 15:30:06;;;;;;;;;44.50;38.75;;;;;8.88;53.58;102413.38;4982152;28;45402;-85
2022/01/24 15:32:31;;;;;;;;;40.75;34.50;;;;;8.97;53.51;102438.28;4979022;28;45393;-83
2022/01/24 15:34:57;;;;;;;;;49.75;37.25;;;;;8.94;53.86;102442.53;4969977;28;48293;-90
2022/01/24 15:37:22;;;;;;;;;32.75;31.50;;;;;8.88;54.20;102448.44;5003005;28;45443;-85
2022/01/24 15:39:53;;;;;;;;;50.25;39.75;;;;;8.46;54.42;102385.34;4980979;28;45472;-84
2022/01/24 15:42:37;;;;;;;;;42.25;37.00;;;;;8.32;54.65;102369.81;4995127;28;45401;-88
2022/01/24 15:47:44;;;;;;;;;50.25;40.25;;;;;8.67;55.24;102460.66;4991591;28;45203;-85
2022/01/24 15:50:13;;;;;;;;;41.50;36.75;;;;;8.61;55.75;102461.28;5000525;28;45465;-85
2022/01/24 15:52:40;;;;;;;;;43.25;38.25;;;;;8.06;55.08;102376.56;4981537;28;45352;-89
2022/01/24 15:55:09;;;;;;;;;38.50;33.50;;;;;8.51;56.26;102467.88;4995704;28;45571;-87
2022/01/24 15:57:40;;;;;;;;;42.00;38.50;;;;;7.78;55.84;102351.72;4992359;28;45309;-88
2022/01/24 16:00:21;;;;;;;;;42.00;37.75;;;;;8.25;56.40;102436.91;4968345;28;45485;-85
2022/01/24 16:02:49;;;;;;;;;39.25;37.00;;;;;8.03;56.49;102418.44;4987482;28;45276;-84
2022/01/24 16:05:17;;;;;;;;;34.00;33.00;;;;;7.91;56.72;102405.63;4993069;28;46523;-84
2022/01/24 16:07:44;;;;;;;;;38.50;35.25;;;;;7.96;57.28;102409.38;4994486;28;45578;-88
2022/01/24 16:10:12;;;;;;;;;36.25;34.25;;;;;7.75;57.26;102384.81;4979671;28;45350;-90
2022/01/24 16:12:42;;;;;;;;;56.00;45.75;;;;;7.82;57.84;102402.63;4979322;28;45638;-86